5th International Sprint Festival 'Riga Sprint 2017'Short Course (25m)
Riga (LAT)3 - 4 Nov 2017
Men, 200m Breaststroke, Final,  Open
Men, 200m Breaststroke, Prelim,  Open
Men, 200m Breaststroke, Final,  Open3 Nov 2017 - 18:56TimePts.
1.SHYMANOVICH, Ilya1994BLRBelarus2:08.15830
2.BOBROVS, Daniils1997LATBJSS Ridzene-ZIEP2:08.54822
3.ALLIKVEE, Martin1995ESTSK Garant2:12.12757
4.SILINS, Janis Vitauts2000LATValmieras BSS2:13.75730
5.NIINE, Joonas2000ESTUK Aktiiv2:15.30705
6.ROZALOVSKIS, Andrejs1992LATBJSS Ridzene-OSC2:16.13692
Men, 200m Breaststroke, Prelim,  Open3 Nov 2017 - 11:54TimePts.
1.SHYMANOVICH, Ilya1994BLRBelarus2:09.90797
2.BOBROVS, Daniils1997LATBJSS Ridzene-ZIEP2:12.18756
3.SILINS, Janis Vitauts2000LATValmieras BSS2:13.50734
4.ALLIKVEE, Martin1995ESTSK Garant2:15.53701
5.NIINE, Joonas2000ESTUK Aktiiv2:16.38688
6.ROZALOVSKIS, Andrejs1992LATBJSS Ridzene-OSC2:16.47687
7.KAVALIOU, Yauhen1996BLRBelarus2:19.09649
8.ADAMENIA, Anton1996BLRBelarus2:19.79639
9.HEIN, Silver1997ESTUjumisklubi Briis2:20.00636
10.ANDREJEVS, Nikita1999LATSK Delfins2:25.62565
11.ROZENKOV, Ilja2002ESTUK Aktiiv2:33.24485
12.BOKA, Deniss2000LATBJSS Ridzene-DSN2:33.72480
13.GRUSKEVICS, Georgs2001LATLiepajas KSS-LOC2:37.60446
14.FEDOSIKS, Vladlens2001LATJurmalas SS2:40.68421
15.AKIMOVS, Miko1999LATJurmalas SS2:41.50414
16.GALILEEVS, Nikita1999LATKipsalas peldbaseins2:41.80412
17.LIAUKOVICH, Tsimafei2003BLRBelarus2:42.39407
18.KAKTINS, Matiss2005LATJelgavas SPS2:50.77350
19.STOLARENKO, Deniss2003LATKipsalas peldbaseins2:54.30329
20.LEJINS, Nils2005LATSK Delfins3:08.07262
DSQAKAVANTSEV, Maksim1998ESTUK Aktiiv2:28.97-